Aérodrome :
LOGIN :

S'inscrire | Disclaimer

   EN    FR    IT 

 










Légende :    VFR   VFR Marginal   IFR   IFR Intensif   IFR Très Intensif
Visi : 
Plafond : 
>= 8 km
>= 3000ft
5 à 8 km
1000 à 3000 ft
1500m à 5 km
500 à 1000 ft
800 à 1500m
200 à 500 ft
< 800m
< 200 ft
Symboles :   Orages  Brouillard  Fortes neiges  Fortes précipitations  Vent > 20 kt
SIGMETs :   Divers  Orages  Givrage  Turbulence  Onde Orograph.  Cendres Volcan.







- Altitude de l'aérodrome : 36 ft
- Code IATA : LTQ
- Voir les cartes d'approche


LFAT - Le Touquet

DERNIER METAR :
  • 280000Z AUTO 29004KT 240V320 9999 -DZ FEW019 BKN029 OVC035 08/06 Q1016

METARs EXPIRÉS :
  • 272330Z AUTO VRB03KT 9999 -RA BKN030 OVC036 08/05 Q1016
  • 272300Z AUTO VRB03KT 9999 -RA BKN024 BKN031 OVC039 08/06 Q1016
  • 272230Z AUTO 25002KT 9999 -RA FEW017 SCT026 OVC033 07/06 Q1016
  • 272200Z AUTO VRB02KT 9999 -RA SCT025 BKN030 BKN035 07/05 Q1017
  • 272130Z AUTO 30007KT 9999 -RA FEW027 BKN034 OVC040 08/05 Q1017

Prévision TAF périmée.
ATIS : +33 3 21 06 62 84
Pas de NOTAMs connus pour ce terrain.



MET'MAP, la Météo Aéronautique d'un coup d'oeil ! - Copyright ORBIFLY Décembre 2007 - Disclaimer

ORBIFLY MET'MAP TEAM :

Programmation & Développement : Alexandra Zaïnal
Conception & Développement : Baudouin d'Aumeries
Co-Programmation & Développement : Marc-Olivier Méhu
Soutien technique & logistique : Manuel Goepfert

Contact : metmap@orbifly.com




SOURCES & CREDITS :

   NOAA